Time;durP1;ratioP1;P1;durP2;ratioP2;P2;SDS_P1;SDS_P2;PMS_P1;PMS_P2;Temp;Humidity;BMP_temperature;BMP_pressure;BME280_temperature;BME280_humidity;BME280_pressure;Samples;Min_cycle;Max_cycle;Signal;HPM_P1;HPM_P2
2023/07/05 00:01:26;;;;;;;3.20;2.60;;;10.80;99.90;10.10;100298;;;;591920;239;24014;-76
2023/07/05 00:03:55;;;;;;;3.57;2.17;;;10.80;99.90;10.10;100296;;;;590943;239;24042;-75
2023/07/05 00:06:23;;;;;;;2.27;2.17;;;10.80;99.90;10.10;100307;;;;590935;239;24005;-76
2023/07/05 00:08:52;;;;;;;2.80;2.27;;;10.90;99.90;10.10;100300;;;;591034;239;24022;-75
2023/07/05 00:11:23;;;;;;;2.27;2.07;;;10.80;99.90;10.10;100309;;;;590786;239;24096;-76
2023/07/05 00:13:47;;;;;;;4.00;2.57;;;10.80;99.90;10.10;100299;;;;590796;239;24048;-76
2023/07/05 00:16:17;;;;;;;3.80;2.30;;;10.80;99.90;10.10;100299;;;;590918;239;24054;-75
2023/07/05 00:18:45;;;;;;;6.13;2.60;;;10.80;99.90;10.10;100304;;;;590808;233;24159;-73
2023/07/05 00:21:17;;;;;;;2.87;2.27;;;10.80;99.90;10.10;100300;;;;591094;239;24056;-78
2023/07/05 00:23:42;;;;;;;5.43;2.40;;;10.80;99.90;10.10;100311;;;;600376;239;24027;-76
2023/07/05 00:26:10;;;;;;;2.13;2.03;;;10.80;99.90;10.10;100307;;;;590979;239;24078;-75
2023/07/05 00:28:42;;;;;;;2.57;2.40;;;10.80;99.90;10.10;100309;;;;591368;239;24007;-75
2023/07/05 00:31:09;;;;;;;2.53;2.27;;;10.80;99.90;10.00;100309;;;;591103;239;24069;-76
2023/07/05 00:33:35;;;;;;;3.93;2.40;;;10.70;99.90;10.00;100297;;;;588221;239;24054;-76
2023/07/05 00:36:03;;;;;;;5.77;2.87;;;10.70;99.90;10.00;100302;;;;591569;239;27433;-76
2023/07/05 00:38:31;;;;;;;4.10;2.97;;;10.70;99.90;10.00;100305;;;;601621;238;24083;-75
2023/07/05 00:41:03;;;;;;;3.63;2.53;;;10.70;99.90;10.00;100308;;;;591924;239;24109;-80
2023/07/05 00:43:30;;;;;;;2.73;2.20;;;10.70;99.90;10.00;100307;;;;591796;239;24073;-78
2023/07/05 00:46:01;;;;;;;3.93;2.67;;;10.70;99.90;10.00;100302;;;;568784;248;24169;-78
2023/07/05 00:48:47;;;;;;;3.87;3.00;;;10.70;99.90;9.90;100308;;;;573962;244;46037;-82
2023/07/05 00:51:14;;;;;;;2.37;2.03;;;10.70;99.90;9.90;100311;;;;569581;248;24104;-76
2023/07/05 00:53:45;;;;;;;5.47;2.60;;;10.70;99.90;9.90;100315;;;;580526;243;24042;-82
2023/07/05 00:56:10;;;;;;;4.67;2.67;;;10.70;99.90;9.90;100314;;;;577149;246;24127;-81
2023/07/05 00:58:42;;;;;;;2.47;2.23;;;10.70;99.90;9.90;100313;;;;592555;238;24066;-81
2023/07/05 01:01:06;;;;;;;5.03;2.30;;;10.70;99.90;9.90;100318;;;;591986;238;24034;-76
2023/07/05 01:03:37;;;;;;;3.90;2.43;;;10.60;99.90;9.90;100311;;;;591451;238;24066;-76
2023/07/05 01:06:06;;;;;;;2.70;2.50;;;10.60;99.90;9.80;100310;;;;591321;238;24033;-75
2023/07/05 01:08:30;;;;;;;5.60;2.87;;;10.60;99.90;9.80;100311;;;;600497;239;25119;-75
2023/07/05 01:11:13;;;;;;;2.67;2.47;;;10.60;99.90;9.80;100312;;;;591107;239;24033;-76
2023/07/05 01:13:41;;;;;;;3.17;2.97;;;10.60;99.90;9.80;100322;;;;591104;239;24031;-76
2023/07/05 01:16:29;;;;;;;7.77;3.30;;;10.60;99.90;9.80;100319;;;;591092;239;24122;-76
2023/07/05 01:19:03;;;;;;;3.77;3.03;;;10.50;99.90;9.80;100311;;;;590416;239;24089;-76
2023/07/05 01:21:39;;;;;;;4.17;3.47;;;10.50;99.90;9.70;100312;;;;591149;239;24048;-76
2023/07/05 01:24:26;;;;;;;3.43;3.13;;;10.50;99.90;9.70;100302;;;;590607;239;24048;-76
2023/07/05 01:27:12;;;;;;;3.73;3.20;;;10.50;99.90;9.70;100303;;;;590549;239;24093;-76
2023/07/05 01:29:52;;;;;;;3.40;3.10;;;10.50;99.90;9.70;100308;;;;590177;239;25088;-76
2023/07/05 01:32:31;;;;;;;3.30;3.03;;;10.40;99.90;9.60;100309;;;;591771;239;24053;-75
2023/07/05 01:35:23;;;;;;;3.63;2.90;;;10.80;99.90;9.70;100306;;;;590106;239;25080;-75
2023/07/05 01:37:57;;;;;;;4.07;3.33;;;10.40;99.90;9.60;100301;;;;590762;239;24076;-75
2023/07/05 01:40:21;;;;;;;5.33;2.80;;;10.40;99.90;9.60;100299;;;;589846;239;24066;-75
2023/07/05 01:42:49;;;;;;;3.37;2.47;;;10.40;99.90;9.60;100308;;;;587158;237;24062;-75
2023/07/05 01:45:18;;;;;;;6.50;2.30;;;10.40;99.90;9.60;100304;;;;591896;239;24086;-75
2023/07/05 01:47:58;;;;;;;3.93;2.43;;;10.30;99.90;9.60;100296;;;;591089;239;24073;-76
2023/07/05 01:50:28;;;;;;;3.53;2.60;;;10.30;99.90;9.60;100304;;;;590807;239;24046;-75
2023/07/05 01:53:17;;;;;;;4.97;3.22;;;10.30;99.90;9.60;100296;;;;594001;239;34918;-75
2023/07/05 01:55:46;;;;;;;5.17;2.60;;;10.40;99.90;9.70;100301;;;;588002;239;24043;-75
2023/07/05 01:58:18;;;;;;;2.80;2.27;;;10.40;99.90;9.60;100304;;;;588483;233;24057;-76
2023/07/05 02:00:46;;;;;;;2.63;2.53;;;10.40;99.90;9.60;100304;;;;589911;239;24071;-75
2023/07/05 02:03:12;;;;;;;6.20;2.40;;;10.40;99.90;9.60;100301;;;;591633;238;24110;-75
2023/07/05 02:05:43;;;;;;;7.20;2.63;;;10.40;99.90;9.60;100304;;;;591696;238;24045;-76
2023/07/05 02:08:08;;;;;;;7.80;3.37;;;10.40;99.90;9.60;100312;;;;568440;245;24148;-76
2023/07/05 02:10:37;;;;;;;2.73;2.37;;;10.40;99.90;9.70;100298;;;;578306;244;24093;-75
2023/07/05 02:13:06;;;;;;;4.50;2.93;;;10.40;99.90;9.70;100298;;;;591173;238;24060;-76
2023/07/05 02:15:33;;;;;;;4.40;2.60;;;10.40;99.90;9.70;100305;;;;589290;238;24058;-76
2023/07/05 02:18:00;;;;;;;2.90;2.43;;;10.40;99.90;9.70;100302;;;;591592;238;24054;-76
2023/07/05 02:20:30;;;;;;;4.23;2.73;;;10.40;99.90;9.60;100306;;;;591477;239;24027;-76
2023/07/05 02:22:59;;;;;;;3.53;2.43;;;10.40;99.90;9.60;100307;;;;599967;238;24084;-75
2023/07/05 02:25:30;;;;;;;6.27;2.93;;;10.40;99.90;9.70;100297;;;;591017;239;24027;-75
2023/07/05 02:27:56;;;;;;;2.50;2.30;;;10.40;99.90;9.70;100301;;;;590856;239;24050;-75
2023/07/05 02:30:26;;;;;;;4.97;2.80;;;10.40;99.90;9.70;100300;;;;590751;239;24107;-76
2023/07/05 02:32:52;;;;;;;4.53;2.40;;;10.40;99.90;9.80;100298;;;;590899;239;24077;-74
2023/07/05 02:35:20;;;;;;;2.70;2.47;;;10.50;99.90;9.80;100299;;;;590951;239;24029;-76
2023/07/05 02:37:51;;;;;;;6.00;2.40;;;10.50;99.90;9.80;100300;;;;591117;239;24084;-76
2023/07/05 02:40:19;;;;;;;3.83;2.23;;;10.50;99.90;9.80;100298;;;;590341;239;24080;-76
2023/07/05 02:42:44;;;;;;;2.90;2.20;;;10.50;99.90;9.80;100301;;;;590737;239;24059;-76
2023/07/05 02:45:12;;;;;;;3.77;3.10;;;10.50;99.90;9.90;100310;;;;590693;239;24045;-75
2023/07/05 02:47:40;;;;;;;2.63;2.43;;;10.60;99.90;9.90;100301;;;;591013;239;24048;-74
2023/07/05 02:50:08;;;;;;;2.10;2.00;;;10.60;99.90;10.00;100310;;;;591057;239;24031;-75
2023/07/05 02:52:36;;;;;;;4.30;2.03;;;10.70;99.90;10.10;100304;;;;601328;239;24086;-75
2023/07/05 02:55:08;;;;;;;4.80;2.60;;;10.70;99.90;10.10;100307;;;;590741;239;24127;-75
2023/07/05 02:57:33;;;;;;;3.90;2.57;;;10.80;99.90;10.20;100304;;;;599720;235;24092;-75
2023/07/05 03:00:01;;;;;;;2.53;2.30;;;10.80;99.90;10.20;100313;;;;590655;239;24042;-77
2023/07/05 03:02:29;;;;;;;5.00;3.00;;;10.90;99.90;10.30;100305;;;;590756;239;24061;-76
2023/07/05 03:04:56;;;;;;;2.93;2.73;;;10.90;99.90;10.40;100308;;;;590582;239;24037;-75
2023/07/05 03:07:24;;;;;;;3.53;2.70;;;11.00;99.90;10.40;100309;;;;590711;239;24074;-76
2023/07/05 03:09:52;;;;;;;10.23;2.50;;;11.10;99.90;10.50;100311;;;;590571;239;24053;-76
2023/07/05 03:12:20;;;;;;;2.77;2.50;;;11.20;99.90;10.60;100322;;;;589493;239;24114;-77
2023/07/05 03:14:49;;;;;;;2.13;2.00;;;11.30;99.90;10.70;100322;;;;591791;238;24039;-76
2023/07/05 03:17:17;;;;;;;6.60;2.10;;;11.30;99.90;10.80;100320;;;;592668;238;24029;-76
2023/07/05 03:19:45;;;;;;;2.57;2.37;;;11.40;99.90;11.00;100340;;;;592309;238;24071;-76
2023/07/05 03:22:15;;;;;;;3.00;2.70;;;11.60;99.90;11.30;100319;;;;592299;238;24037;-79
2023/07/05 03:24:41;;;;;;;3.73;2.77;;;11.80;99.90;11.70;100317;;;;591780;238;24048;-79
2023/07/05 03:27:12;;;;;;;3.87;2.70;;;12.20;99.90;12.10;100332;;;;591518;238;24041;-78
2023/07/05 03:29:36;;;;;;;4.93;3.27;;;12.60;99.90;12.50;100319;;;;588780;238;24025;-78
2023/07/05 03:32:08;;;;;;;2.47;2.27;;;13.00;99.90;13.00;100324;;;;591824;239;24058;-78
2023/07/05 03:34:32;;;;;;;2.70;2.50;;;13.50;99.90;13.40;100330;;;;588825;239;24123;-79
2023/07/05 03:37:01;;;;;;;3.30;2.37;;;13.90;99.90;13.80;100321;;;;592058;239;24010;-76
2023/07/05 03:39:29;;;;;;;4.57;2.30;;;14.30;99.90;14.30;100316;;;;591701;239;24019;-78
2023/07/05 03:41:57;;;;;;;5.60;2.23;;;14.80;99.90;14.70;100319;;;;591942;237;24006;-78
2023/07/05 03:44:25;;;;;;;2.37;2.17;;;15.20;99.90;15.10;100312;;;;600751;234;24133;-78
2023/07/05 03:46:53;;;;;;;1.97;1.80;;;15.60;99.90;15.50;100317;;;;592352;239;24026;-75
2023/07/05 03:49:21;;;;;;;2.10;1.87;;;16.00;99.90;15.90;100318;;;;591747;239;24043;-79
2023/07/05 03:51:49;;;;;;;2.93;2.47;;;16.40;99.90;16.20;100315;;;;591361;239;24062;-78
2023/07/05 03:54:17;;;;;;;3.33;2.07;;;16.80;99.90;16.60;100314;;;;591554;239;24028;-76
2023/07/05 03:56:48;;;;;;;3.47;2.20;;;17.20;99.90;17.10;100316;;;;591223;239;24126;-78
2023/07/05 03:59:13;;;;;;;3.27;2.30;;;18.00;99.90;17.50;100318;;;;599963;235;23049;-80
2023/07/05 04:01:44;;;;;;;3.13;2.00;;;18.00;99.90;17.90;100317;;;;591385;239;24017;-76
2023/07/05 04:04:09;;;;;;;2.03;1.80;;;18.40;99.90;18.30;100324;;;;600397;239;24043;-77
2023/07/05 04:06:37;;;;;;;1.90;1.80;;;18.80;99.90;18.60;100330;;;;591390;239;24027;-78
2023/07/05 04:09:09;;;;;;;1.63;1.53;;;19.20;99.90;19.10;100322;;;;591382;239;24079;-76
2023/07/05 04:11:36;;;;;;;4.40;1.97;;;19.70;99.90;19.60;100324;;;;590752;239;24035;-76
2023/07/05 04:14:01;;;;;;;1.90;1.80;;;20.10;99.90;20.00;100333;;;;591041;239;23055;-77
2023/07/05 04:16:33;;;;;;;4.10;2.30;;;20.60;99.90;20.50;100319;;;;591405;239;23055;-75
2023/07/05 04:19:00;;;;;;;2.60;2.20;;;21.10;99.90;21.00;100326;;;;600205;239;24107;-77
2023/07/05 04:21:26;;;;;;;2.87;2.20;;;22.00;99.90;21.40;100323;;;;600290;233;24092;-76
2023/07/05 04:23:54;;;;;;;3.87;2.20;;;22.00;99.90;21.80;100335;;;;591369;239;24031;-77
2023/07/05 04:26:22;;;;;;;1.70;1.60;;;22.40;99.90;22.30;100339;;;;592645;238;24046;-75
2023/07/05 04:28:50;;;;;;;2.67;1.77;;;23.60;99.90;23.00;100343;;;;593100;238;24135;-75
2023/07/05 04:31:25;;;;;;;4.75;1.90;;;23.50;99.90;23.60;100336;;;;587686;238;34943;-79
2023/07/05 04:33:52;;;;;;;1.77;1.67;;;24.90;97.90;24.10;100334;;;;592359;238;23041;-77
2023/07/05 04:36:24;;;;;;;3.30;1.80;;;24.80;97.90;24.90;100337;;;;592797;238;24082;-77
2023/07/05 04:38:48;;;;;;;3.60;1.87;;;25.70;94.80;25.60;100337;;;;591594;238;23060;-76
2023/07/05 04:41:16;;;;;;;2.60;1.97;;;26.30;92.40;25.80;100333;;;;601177;238;23064;-76
2023/07/05 04:43:44;;;;;;;3.50;2.63;;;26.80;90.70;26.10;100331;;;;591847;239;23039;-75
2023/07/05 04:46:12;;;;;;;2.00;1.73;;;27.10;88.50;26.40;100324;;;;591360;239;23065;-76
2023/07/05 04:48:43;;;;;;;2.27;1.97;;;27.40;85.00;26.80;100333;;;;591282;239;24109;-76
2023/07/05 04:51:08;;;;;;;2.17;1.57;;;27.70;82.60;26.90;100333;;;;590466;239;23120;-75
2023/07/05 04:53:38;;;;;;;7.97;1.73;;;28.00;80.90;27.50;100332;;;;591055;239;23086;-76
2023/07/05 04:56:08;;;;;;;1.80;1.65;;;28.50;79.10;27.90;100339;;;;600298;233;23077;-75
2023/07/05 04:58:32;;;;;;;1.98;1.87;;;29.00;76.80;28.40;100335;;;;590844;239;23096;-76
2023/07/05 05:01:03;;;;;;;2.97;1.83;;;29.40;73.30;28.70;100344;;;;590959;239;23071;-78
2023/07/05 05:03:34;;;;;;;2.60;2.10;;;30.40;70.70;29.30;100335;;;;590489;239;23029;-78
2023/07/05 05:06:00;;;;;;;4.03;2.37;;;31.00;68.40;30.00;100339;;;;590482;239;23090;-78
2023/07/05 05:08:29;;;;;;;2.58;2.37;;;31.60;66.70;30.50;100351;;;;590792;239;23067;-76
2023/07/05 05:11:00;;;;;;;2.15;1.92;;;32.00;64.40;30.90;100350;;;;590536;239;24054;-77
2023/07/05 05:13:28;;;;;;;2.03;1.80;;;31.90;64.30;31.40;100352;;;;590637;239;23089;-79
2023/07/05 05:15:54;;;;;;;3.60;1.65;;;32.50;62.90;31.90;100356;;;;590901;239;24066;-79
2023/07/05 05:18:21;;;;;;;2.03;1.60;;;32.90;61.20;32.40;100355;;;;600169;239;23036;-82
2023/07/05 05:20:49;;;;;;;2.15;2.00;;;33.40;58.70;32.80;100356;;;;590923;239;24077;-80
2023/07/05 05:23:21;;;;;;;2.95;1.70;;;33.80;57.80;33.10;100358;;;;591767;239;23101;-79
2023/07/05 05:25:48;;;;;;;2.80;1.92;;;34.10;57.60;33.30;100356;;;;591131;239;23048;-78
2023/07/05 05:28:16;;;;;;;2.55;1.50;;;34.40;56.10;33.40;100356;;;;591069;239;23052;-81
2023/07/05 05:30:44;;;;;;;5.45;1.80;;;34.40;55.60;33.30;100364;;;;591114;239;23047;-81
2023/07/05 05:33:11;;;;;;;1.80;1.60;;;34.30;54.90;33.50;100366;;;;590977;239;24082;-80
2023/07/05 05:35:42;;;;;;;1.90;1.67;;;34.40;54.00;33.50;100375;;;;568155;248;23142;-79
2023/07/05 05:38:07;;;;;;;2.58;1.67;;;34.40;53.50;33.70;100372;;;;578282;244;23119;-76
2023/07/05 05:40:39;;;;;;;3.75;1.73;;;34.50;52.80;33.60;100377;;;;592257;238;24069;-77
2023/07/05 05:43:03;;;;;;;3.87;1.70;;;34.50;52.60;33.60;100387;;;;589171;238;23035;-78
2023/07/05 05:45:31;;;;;;;2.08;1.85;;;34.50;52.90;33.70;100387;;;;591857;238;24060;-77
2023/07/05 05:47:59;;;;;;;2.15;1.73;;;34.50;53.30;34.00;100391;;;;591551;238;24067;-76
2023/07/05 05:50:27;;;;;;;2.20;2.00;;;34.70;52.10;34.30;100391;;;;591662;238;23058;-77
2023/07/05 05:52:55;;;;;;;2.05;1.73;;;35.00;51.70;34.50;100399;;;;591463;238;23062;-79
2023/07/05 05:55:22;;;;;;;2.92;1.90;;;35.20;51.00;34.70;100391;;;;591728;239;23017;-79
2023/07/05 05:57:50;;;;;;;4.95;1.80;;;35.30;50.00;34.70;100396;;;;591437;239;23068;-78
2023/07/05 06:00:21;;;;;;;3.42;2.00;;;35.30;49.90;34.70;100393;;;;590880;239;23047;-77
2023/07/05 06:02:50;;;;;;;2.67;2.25;;;35.40;50.70;34.70;100400;;;;590908;239;23050;-77
2023/07/05 06:05:17;;;;;;;2.62;1.90;;;35.50;50.80;34.80;100402;;;;590709;239;23077;-77
2023/07/05 06:07:42;;;;;;;2.53;2.28;;;35.50;51.30;34.50;100403;;;;590661;239;23059;-77
2023/07/05 06:10:10;;;;;;;3.97;2.30;;;35.20;51.20;34.60;100400;;;;591050;239;23037;-76
2023/07/05 06:12:41;;;;;;;4.40;2.87;;;35.30;51.30;34.30;100400;;;;601742;238;23047;-79
2023/07/05 06:15:06;;;;;;;2.25;2.15;;;35.10;51.20;33.80;100403;;;;591000;239;23079;-81
2023/07/05 06:17:34;;;;;;;4.55;2.10;;;34.70;51.60;33.70;100401;;;;588709;239;23130;-81
2023/07/05 06:20:05;;;;;;;3.35;2.47;;;34.50;52.20;33.70;100402;;;;591231;239;24074;-82
2023/07/05 06:22:30;;;;;;;3.12;2.28;;;34.50;52.40;33.80;100403;;;;591047;239;24060;-82
2023/07/05 06:24:58;;;;;;;2.08;1.87;;;34.50;51.80;33.90;100405;;;;591050;237;23068;-76
2023/07/05 06:27:26;;;;;;;4.25;1.98;;;34.50;52.40;34.70;100404;;;;591099;239;23041;-77
2023/07/05 06:29:56;;;;;;;4.18;2.15;;;35.10;52.10;35.60;100400;;;;591067;239;23085;-77
2023/07/05 06:32:24;;;;;;;8.65;2.47;;;35.90;49.80;36.10;100399;;;;591009;239;23057;-77
2023/07/05 06:34:52;;;;;;;2.12;1.92;;;36.50;49.40;37.00;100403;;;;591177;239;23094;-78
2023/07/05 06:37:20;;;;;;;5.62;2.30;;;37.50;48.70;37.70;100400;;;;591169;239;24068;-79
2023/07/05 06:39:48;;;;;;;3.25;1.92;;;38.10;47.50;38.20;100407;;;;591161;239;23065;-77
2023/07/05 06:42:16;;;;;;;2.40;2.20;;;38.70;46.90;38.80;100400;;;;591114;239;23037;-80
2023/07/05 06:44:44;;;;;;;3.17;2.58;;;39.30;46.30;39.60;100409;;;;591043;239;23084;-79
2023/07/05 06:47:12;;;;;;;2.00;1.90;;;40.00;44.80;40.00;100404;;;;591277;239;23027;-78
2023/07/05 06:49:40;;;;;;;4.18;2.10;;;40.40;43.60;40.10;100416;;;;592214;238;23050;-78
2023/07/05 06:52:08;;;;;;;10.02;4.62;;;40.60;44.30;40.40;100416;;;;590914;238;23074;-80
2023/07/05 06:54:39;;;;;;;8.13;2.28;;;40.90;42.80;40.80;100418;;;;591597;238;23050;-80
2023/07/05 06:57:06;;;;;;;22.90;4.18;;;41.30;43.30;41.10;100417;;;;591716;238;24039;-80
2023/07/05 06:59:31;;;;;;;20.17;6.97;;;41.50;41.90;41.50;100416;;;;583695;238;34976;-81
2023/07/05 07:02:02;;;;;;;7.60;2.30;;;42.00;41.20;41.90;100416;;;;591645;233;23059;-79
2023/07/05 07:04:30;;;;;;;5.00;2.05;;;42.30;40.30;42.20;100416;;;;588889;238;22997;-78
2023/07/05 07:06:58;;;;;;;6.57;1.90;;;42.70;39.80;42.70;100424;;;;578802;244;23112;-80
2023/07/05 07:09:23;;;;;;;4.22;1.85;;;43.10;40.40;43.30;100422;;;;577977;244;23101;-77
2023/07/05 07:11:54;;;;;;;3.83;1.77;;;44.30;38.70;44.00;100420;;;;590833;239;23137;-79
2023/07/05 07:14:20;;;;;;;3.35;1.95;;;44.70;37.70;44.40;100418;;;;590704;239;23087;-78
2023/07/05 07:16:48;;;;;;;3.20;1.80;;;44.70;37.60;44.60;100424;;;;590937;239;23088;-77
2023/07/05 07:19:20;;;;;;;4.47;2.70;;;45.00;37.70;44.80;100422;;;;599717;235;23041;-77
2023/07/05 07:21:48;;;;;;;2.35;1.70;;;45.30;37.50;44.70;100417;;;;590503;239;23051;-79
2023/07/05 07:24:12;;;;;;;2.35;1.98;;;45.20;36.30;44.50;100411;;;;590711;239;23039;-76
2023/07/05 07:26:40;;;;;;;2.53;1.60;;;45.10;35.70;44.10;100414;;;;591095;239;23033;-78
2023/07/05 07:29:11;;;;;;;4.70;2.53;;;44.70;36.20;44.00;100414;;;;591098;239;23017;-77
2023/07/05 07:31:37;;;;;;;17.52;6.03;;;44.60;36.40;44.20;100411;;;;590859;239;23051;-78
2023/07/05 07:34:07;;;;;;;2.35;2.00;;;44.90;35.90;44.50;100411;;;;591297;239;24117;-78
2023/07/05 07:36:33;;;;;;;4.93;1.80;;;44.90;35.90;45.00;100406;;;;591174;239;23057;-78
2023/07/05 07:39:02;;;;;;;1.73;1.42;;;45.30;34.60;44.80;100405;;;;591015;239;23036;-79
2023/07/05 07:41:37;;;;;;;1.60;1.50;;;45.10;34.30;44.40;100406;;;;591076;239;23137;-78
2023/07/05 07:44:06;;;;;;;5.67;2.13;;;44.80;35.30;44.20;100413;;;;586004;233;34977;-78
2023/07/05 07:46:35;;;;;;;5.65;2.67;;;45.00;35.60;44.40;100421;;;;583817;239;34942;-76
2023/07/05 07:49:05;;;;;;;5.25;3.20;;;44.90;35.60;44.80;100425;;;;586212;233;34956;-76
2023/07/05 07:51:30;;;;;;;3.12;1.70;;;45.30;34.90;44.80;100424;;;;568094;248;23096;-78
2023/07/05 07:53:58;;;;;;;3.90;1.87;;;45.30;33.50;44.80;100423;;;;583769;241;23279;-79
2023/07/05 07:56:26;;;;;;;8.27;4.50;;;45.20;34.10;45.10;100421;;;;591214;239;23057;-78
2023/07/05 07:58:57;;;;;;;11.60;5.18;;;45.30;34.90;45.60;100419;;;;601460;234;23026;-78
2023/07/05 08:01:29;;;;;;;3.60;1.80;;;46.50;34.80;46.30;100417;;;;579993;243;23074;-75
2023/07/05 08:03:57;;;;;;;2.67;1.80;;;46.40;34.70;46.60;100417;;;;579970;242;23105;-78
2023/07/05 08:06:37;;;;;;;3.15;1.90;;;46.90;33.50;46.00;100421;;;;592747;238;23079;-81
2023/07/05 08:09:02;;;;;;;1.58;1.52;;;46.70;32.60;43.70;100418;;;;591743;238;24064;-82
2023/07/05 08:11:29;;;;;;;3.10;1.65;;;45.30;32.90;41.90;100414;;;;592512;238;23321;-83
2023/07/05 08:13:58;;;;;;;3.08;1.67;;;42.70;35.00;41.90;100417;;;;592337;238;23144;-83
2023/07/05 08:16:30;;;;;;;1.40;1.30;;;42.70;35.00;42.70;100423;;;;592422;238;23051;-80
2023/07/05 08:18:57;;;;;;;1.52;1.42;;;43.00;35.50;43.00;100414;;;;592143;239;23096;-79
2023/07/05 08:21:23;;;;;;;3.05;1.50;;;43.60;34.20;43.10;100417;;;;591054;239;23045;-78
2023/07/05 08:23:51;;;;;;;2.00;1.40;;;43.80;34.00;43.50;100415;;;;591431;239;23042;-78
2023/07/05 08:26:20;;;;;;;1.55;1.40;;;44.00;34.40;43.50;100411;;;;591098;239;23046;-78
2023/07/05 08:28:49;;;;;;;1.92;1.40;;;43.80;33.30;43.10;100416;;;;591481;239;23050;-78
2023/07/05 08:31:20;;;;;;;4.00;1.58;;;43.70;33.20;42.90;100413;;;;591373;239;23045;-80
2023/07/05 08:33:45;;;;;;;2.87;1.75;;;43.70;33.40;42.40;100416;;;;591155;239;23029;-77
2023/07/05 08:36:15;;;;;;;2.08;1.60;;;43.30;33.00;42.30;100411;;;;591399;239;23045;-78
2023/07/05 08:38:44;;;;;;;5.82;1.33;;;43.00;34.60;42.70;100406;;;;601535;238;23050;-79
2023/07/05 08:41:42;;;;;;;2.47;1.50;;;43.20;33.50;42.70;100400;;;;588754;239;23063;-78
2023/07/05 08:44:41;;;;;;;12.82;2.50;;;43.40;32.60;42.80;100400;;;;601488;238;24086;-76
2023/07/05 08:47:13;;;;;;;4.57;1.55;;;43.40;32.50;42.80;100404;;;;590943;239;23094;-78
2023/07/05 08:49:43;;;;;;;3.10;1.40;;;43.30;33.30;42.60;100403;;;;586016;239;23055;-78
2023/07/05 08:52:20;;;;;;;2.15;1.10;;;43.20;33.70;42.80;100402;;;;590719;239;23039;-80
2023/07/05 08:54:48;;;;;;;2.67;1.48;;;43.40;33.50;43.30;100403;;;;594476;239;23127;-78
2023/07/05 08:57:23;;;;;;;4.90;1.45;;;44.00;32.90;43.40;100392;;;;590296;234;24091;-78
2023/07/05 08:59:56;;;;;;;2.35;1.50;;;44.00;32.90;44.20;100389;;;;590847;239;23081;-81
2023/07/05 09:02:25;;;;;;;1.42;1.23;;;44.60;32.40;44.20;100390;;;;591055;239;24085;-80
2023/07/05 09:04:55;;;;;;;1.50;1.40;;;44.90;31.60;44.30;100392;;;;591000;239;23028;-80
2023/07/05 09:07:29;;;;;;;2.25;1.50;;;45.00;31.80;44.80;100390;;;;588403;238;23068;-79
2023/07/05 09:10:22;;;;;;;2.92;1.60;;;45.50;32.40;45.80;100392;;;;590292;239;23059;-79
2023/07/05 09:13:16;;;;;;;3.62;1.40;;;46.30;31.80;45.90;100391;;;;592038;234;23068;-77
2023/07/05 09:16:15;;;;;;;2.30;1.62;;;46.70;31.80;44.20;100392;;;;592952;238;23193;-81
2023/07/05 09:19:16;;;;;;;2.47;1.50;;;45.70;31.70;44.30;100384;;;;591916;238;24062;-83
2023/07/05 09:21:52;;;;;;;6.28;2.20;;;45.20;32.50;45.50;100395;;;;592086;238;23056;-80
2023/07/05 09:24:20;;;;;;;2.28;1.48;;;46.00;31.60;45.20;100395;;;;592246;238;25212;-82
2023/07/05 09:26:54;;;;;;;5.62;1.60;;;46.20;30.70;43.30;100382;;;;592280;238;23024;-81
2023/07/05 09:29:40;;;;;;;1.52;1.42;;;45.00;31.50;41.80;100382;;;;592127;238;23028;-78
2023/07/05 09:32:11;;;;;;;1.80;1.50;;;42.10;33.60;40.60;100392;;;;591314;239;23034;-80
2023/07/05 09:34:42;;;;;;;4.22;1.77;;;42.00;33.50;39.70;100388;;;;591382;239;24083;-78
2023/07/05 09:37:19;;;;;;;2.42;1.65;;;40.90;34.30;38.70;100380;;;;568242;248;23098;-79
2023/07/05 09:39:56;;;;;;;1.55;1.45;;;40.00;35.30;38.30;100369;;;;567295;249;23102;-80
2023/07/05 09:42:30;;;;;;;2.00;1.67;;;39.30;36.20;39.70;100363;;;;576794;244;23120;-80
2023/07/05 09:45:01;;;;;;;5.80;2.03;;;40.10;37.20;41.70;100367;;;;578154;244;23070;-81
2023/07/05 09:47:26;;;;;;;3.85;1.80;;;41.80;34.60;43.00;100364;;;;568297;248;23090;-79
2023/07/05 09:49:53;;;;;;;4.05;1.70;;;43.30;33.70;43.30;100364;;;;576380;246;23149;-82
2023/07/05 09:52:24;;;;;;;1.45;1.35;;;44.10;33.20;43.40;100360;;;;578625;244;23100;-79
2023/07/05 09:54:55;;;;;;;5.03;1.67;;;44.30;32.60;42.90;100360;;;;568023;248;23093;-78
2023/07/05 09:57:23;;;;;;;1.92;1.77;;;44.30;32.30;43.30;100358;;;;567712;244;24129;-79
2023/07/05 09:59:54;;;;;;;7.37;2.05;;;44.50;32.70;44.10;100354;;;;578113;244;23090;-79
2023/07/05 10:02:19;;;;;;;2.53;1.75;;;45.10;32.00;44.50;100357;;;;591453;239;23076;-78
2023/07/05 10:04:49;;;;;;;4.25;2.28;;;45.60;32.00;44.30;100350;;;;591238;239;23174;-79
2023/07/05 10:07:23;;;;;;;3.45;2.05;;;45.60;31.60;44.10;100351;;;;590989;239;23083;-79
2023/07/05 10:10:09;;;;;;;3.05;1.77;;;45.60;31.90;44.80;100346;;;;591281;239;25203;-78
2023/07/05 10:12:37;;;;;;;4.82;2.45;;;46.10;31.50;44.40;100343;;;;600484;238;23055;-81
2023/07/05 10:15:19;;;;;;;4.75;1.90;;;46.00;31.30;43.80;100341;;;;591018;239;24074;-78
2023/07/05 10:17:48;;;;;;;3.67;1.60;;;45.60;31.40;43.50;100338;;;;590848;239;23065;-80
2023/07/05 10:20:28;;;;;;;6.32;2.35;;;45.10;31.90;43.10;100334;;;;600034;239;23154;-77
2023/07/05 10:23:02;;;;;;;6.25;2.33;;;44.60;32.50;42.10;100342;;;;590795;239;23083;-78
2023/07/05 10:25:33;;;;;;;3.58;2.10;;;43.80;32.90;41.50;100334;;;;592573;238;23055;-77
2023/07/05 10:28:01;;;;;;;2.70;2.00;;;43.00;33.40;41.30;100326;;;;592347;238;23146;-78
2023/07/05 10:30:29;;;;;;;6.07;2.12;;;42.60;34.00;40.90;100332;;;;591711;238;23033;-78
2023/07/05 10:33:21;;;;;;;3.37;2.30;;;42.20;34.50;40.20;100325;;;;592090;238;23100;-78
2023/07/05 10:36:05;;;;;;;3.50;2.30;;;41.30;35.40;40.10;100331;;;;586125;238;23068;-77
2023/07/05 10:38:33;;;;;;;3.95;2.78;;;41.30;35.40;39.50;100311;;;;592078;238;23021;-78
2023/07/05 10:41:21;;;;;;;2.80;2.53;;;40.90;36.00;38.30;100309;;;;595178;238;23085;-81
2023/07/05 10:44:08;;;;;;;5.35;2.78;;;40.00;36.30;37.00;100304;;;;592367;239;23043;-81
2023/07/05 10:46:36;;;;;;;2.62;2.17;;;38.50;37.70;35.80;100311;;;;591011;239;23048;-77
2023/07/05 10:49:06;;;;;;;3.50;2.70;;;37.10;39.20;34.50;100299;;;;591836;239;23054;-76
2023/07/05 10:51:34;;;;;;;2.30;2.10;;;35.50;40.70;33.50;100310;;;;591658;239;23130;-80
2023/07/05 10:54:23;;;;;;;4.57;2.65;;;34.30;42.40;32.40;100297;;;;587655;244;24129;-77
2023/07/05 10:56:51;;;;;;;5.65;2.50;;;33.20;43.60;31.30;100288;;;;570209;250;23170;-77
2023/07/05 10:59:37;;;;;;;6.22;2.25;;;32.00;45.50;30.50;100279;;;;578584;244;23073;-77
2023/07/05 11:02:33;;;;;;;2.37;2.17;;;31.10;47.10;29.90;100283;;;;568374;248;23101;-78
2023/07/05 11:05:03;;;;;;;4.35;2.60;;;30.30;48.70;28.90;100275;;;;587574;242;23067;-80
2023/07/05 11:07:28;;;;;;;2.83;2.50;;;29.40;50.20;28.30;100279;;;;591317;239;23060;-80
2023/07/05 11:09:56;;;;;;;4.95;2.30;;;28.80;51.80;27.90;100273;;;;591177;239;24098;-78
2023/07/05 11:12:28;;;;;;;3.50;2.67;;;27.90;53.10;27.60;100268;;;;591272;239;23036;-78
2023/07/05 11:15:00;;;;;;;2.80;2.60;;;27.90;53.10;27.20;100270;;;;600492;237;24052;-76
2023/07/05 11:17:30;;;;;;;4.00;2.87;;;27.60;54.20;26.80;100259;;;;590865;239;23040;-80
2023/07/05 11:19:58;;;;;;;7.30;2.80;;;27.30;54.50;26.60;100264;;;;591051;239;24098;-79
2023/07/05 11:22:48;;;;;;;5.93;2.67;;;26.90;56.30;26.50;100259;;;;591404;239;23128;-77
2023/07/05 11:25:18;;;;;;;5.07;2.50;;;26.80;56.20;26.30;100254;;;;591202;239;23047;-77